createdAt,value
2022-10-07T00:01:11.585Z,15.59
2022-10-07T00:03:14.471Z,15.55
2022-10-07T00:05:16.210Z,15.59
2022-10-07T00:07:17.923Z,15.56
2022-10-07T00:09:19.565Z,15.53
2022-10-07T00:11:25.314Z,15.46
2022-10-07T00:13:28.480Z,15.45
2022-10-07T00:15:30.141Z,15.47
2022-10-07T00:17:31.766Z,15.46
2022-10-07T00:19:33.422Z,15.44
2022-10-07T00:21:36.962Z,15.43
2022-10-07T00:23:40.111Z,15.50
2022-10-07T00:25:44.570Z,15.47
2022-10-07T00:27:46.688Z,15.37
2022-10-07T00:29:49.161Z,15.42
2022-10-07T00:31:56.282Z,15.35
2022-10-07T00:33:59.564Z,15.32
2022-10-07T00:36:01.351Z,15.37
2022-10-07T00:38:03.039Z,15.34
2022-10-07T00:40:05.181Z,15.20
2022-10-07T00:42:06.959Z,15.24
2022-10-07T00:44:32.600Z,15.36
2022-10-07T00:46:37.784Z,15.38
2022-10-07T00:48:40.212Z,15.40
2022-10-07T00:50:43.127Z,15.38
2022-10-07T00:53:10.365Z,15.34
2022-10-07T00:55:17.024Z,15.28
2022-10-07T00:57:21.282Z,15.17
2022-10-07T00:59:22.965Z,15.08
2022-10-07T01:01:25.165Z,15.17
2022-10-07T01:03:27.144Z,15.30
2022-10-07T01:05:29.283Z,15.27
2022-10-07T01:07:31.374Z,15.24
2022-10-07T01:09:33.091Z,15.26
2022-10-07T01:11:45.805Z,15.15
2022-10-07T01:14:15.614Z,15.28
2022-10-07T01:16:29.668Z,15.31
2022-10-07T01:18:40.283Z,15.35
2022-10-07T01:20:45.369Z,15.25
2022-10-07T01:23:05.336Z,15.32
2022-10-07T01:25:15.858Z,15.30
2022-10-07T01:27:20.891Z,15.33
2022-10-07T01:29:43.603Z,15.33
2022-10-07T01:31:58.964Z,15.27
2022-10-07T01:34:01.997Z,15.18
2022-10-07T01:36:10.975Z,15.19
2022-10-07T01:38:16.350Z,15.20
2022-10-07T01:40:27.256Z,15.24
2022-10-07T01:42:29.569Z,15.25
2022-10-07T01:44:31.292Z,15.35
2022-10-07T01:46:37.751Z,15.29
2022-10-07T01:48:39.694Z,15.30
2022-10-07T01:50:41.941Z,15.31
2022-10-07T01:53:15.672Z,15.29
2022-10-07T01:55:32.662Z,15.28
2022-10-07T01:57:37.258Z,15.28
2022-10-07T01:59:41.549Z,15.29
2022-10-07T02:01:54.140Z,15.39
2022-10-07T02:04:50.134Z,15.31
2022-10-07T02:07:00.740Z,15.40
2022-10-07T02:09:09.994Z,15.33
2022-10-07T02:11:13.605Z,15.31
2022-10-07T02:13:47.782Z,15.34
2022-10-07T02:15:58.261Z,15.33
2022-10-07T02:18:06.309Z,15.34
2022-10-07T02:20:12.581Z,15.25
2022-10-07T02:22:25.406Z,15.33
2022-10-07T02:24:30.704Z,15.35
2022-10-07T02:26:34.208Z,15.23
2022-10-07T02:28:40.443Z,15.32
2022-10-07T02:30:46.136Z,15.37
2022-10-07T02:32:58.902Z,15.29
2022-10-07T02:35:05.406Z,15.21
2022-10-07T02:37:16.383Z,15.17
2022-10-07T02:39:18.234Z,15.21
2022-10-07T02:41:34.031Z,15.22
2022-10-07T02:43:36.468Z,15.21
2022-10-07T02:46:01.837Z,15.16
2022-10-07T02:48:06.336Z,15.16
2022-10-07T02:50:12.247Z,15.18
2022-10-07T02:52:26.518Z,15.17
2022-10-07T02:54:37.583Z,15.16
2022-10-07T02:56:41.455Z,15.19
2022-10-07T02:58:46.575Z,15.19
2022-10-07T03:00:53.072Z,15.12
2022-10-07T03:02:58.233Z,15.21
2022-10-07T03:05:00.101Z,15.20
2022-10-07T03:07:01.921Z,15.15
2022-10-07T03:09:04.661Z,15.23
2022-10-07T03:11:06.373Z,15.24
2022-10-07T03:13:07.987Z,15.21
2022-10-07T03:15:13.675Z,15.18
2022-10-07T03:17:15.622Z,15.13
2022-10-07T03:19:17.343Z,15.21
2022-10-07T03:21:19.000Z,15.23
2022-10-07T03:23:20.798Z,15.24
2022-10-07T03:25:22.387Z,15.28
2022-10-07T03:27:24.166Z,15.31
2022-10-07T03:29:26.483Z,15.30
2022-10-07T03:31:29.166Z,15.34
2022-10-07T03:33:30.854Z,15.33
2022-10-07T03:35:32.520Z,15.30
2022-10-07T03:37:34.190Z,15.25
2022-10-07T03:39:35.891Z,15.24
2022-10-07T03:41:37.627Z,15.26
2022-10-07T03:43:39.298Z,15.20
2022-10-07T03:45:44.643Z,15.21
2022-10-07T03:47:46.806Z,15.18
2022-10-07T03:49:48.729Z,15.28
2022-10-07T03:51:50.358Z,15.21
2022-10-07T03:53:54.763Z,15.23
2022-10-07T03:55:56.949Z,15.29
2022-10-07T03:57:59.633Z,15.19
2022-10-07T04:00:01.830Z,15.28
2022-10-07T04:02:03.627Z,15.31
2022-10-07T04:04:07.661Z,15.33
2022-10-07T04:06:10.417Z,15.28
2022-10-07T04:08:17.442Z,15.30
2022-10-07T04:10:20.443Z,15.28
2022-10-07T04:12:22.666Z,15.35
2022-10-07T04:14:24.374Z,15.37
2022-10-07T04:16:26.200Z,15.30
2022-10-07T04:18:27.873Z,15.42
2022-10-07T04:20:29.506Z,15.46
2022-10-07T04:22:31.549Z,15.42
2022-10-07T04:24:33.212Z,15.40
2022-10-07T04:26:34.903Z,15.39
2022-10-07T04:28:37.033Z,15.37
2022-10-07T04:30:40.555Z,15.33
2022-10-07T04:32:42.202Z,15.27
2022-10-07T04:34:43.815Z,15.22
2022-10-07T04:36:45.499Z,15.34
2022-10-07T04:38:50.599Z,15.45
2022-10-07T04:40:52.361Z,15.49
2022-10-07T04:43:12.534Z,15.46
2022-10-07T04:45:14.216Z,15.51
2022-10-07T04:47:16.036Z,15.53
2022-10-07T04:49:17.827Z,15.50
2022-10-07T04:51:19.507Z,15.46
2022-10-07T04:53:21.565Z,15.56
2022-10-07T04:55:23.396Z,15.56
2022-10-07T04:57:25.018Z,15.63
2022-10-07T04:59:29.821Z,15.57
2022-10-07T05:01:31.786Z,15.71
2022-10-07T05:03:37.048Z,15.55
2022-10-07T05:05:42.782Z,15.65
2022-10-07T05:07:49.156Z,15.71
2022-10-07T05:09:51.310Z,15.68
2022-10-07T05:11:55.749Z,15.61
2022-10-07T05:13:58.422Z,15.62
2022-10-07T05:16:02.188Z,15.55
2022-10-07T05:18:07.172Z,15.50
2022-10-07T05:20:10.230Z,15.59
2022-10-07T05:22:13.835Z,15.54
2022-10-07T05:24:15.476Z,15.63
2022-10-07T05:26:17.109Z,15.52
2022-10-07T05:28:18.818Z,15.50
2022-10-07T05:30:21.107Z,15.52
2022-10-07T05:32:22.735Z,15.56
2022-10-07T05:34:24.389Z,15.57
2022-10-07T05:36:26.661Z,15.57
2022-10-07T05:38:29.056Z,15.62
2022-10-07T05:40:30.730Z,15.61
2022-10-07T05:42:32.353Z,15.66
2022-10-07T05:44:33.987Z,15.63
2022-10-07T05:46:35.584Z,15.53
2022-10-07T05:48:39.593Z,15.49
2022-10-07T05:50:42.429Z,15.42
2022-10-07T05:52:45.428Z,15.51
2022-10-07T05:54:47.129Z,15.48
2022-10-07T05:56:49.127Z,15.45
2022-10-07T05:58:52.652Z,15.50
2022-10-07T06:00:58.982Z,15.53
2022-10-07T06:03:04.229Z,15.53
2022-10-07T06:05:06.358Z,15.47
2022-10-07T06:07:08.075Z,15.44
2022-10-07T06:09:41.170Z,15.46
2022-10-07T06:12:01.465Z,15.52
2022-10-07T06:14:04.601Z,15.54
2022-10-07T06:16:09.165Z,15.55
2022-10-07T06:18:11.061Z,15.48
2022-10-07T06:20:15.203Z,15.43
2022-10-07T06:22:16.892Z,15.43
2022-10-07T06:24:18.568Z,15.46
2022-10-07T06:26:21.145Z,15.46
2022-10-07T06:28:23.885Z,15.44
2022-10-07T06:30:25.923Z,15.51
2022-10-07T06:32:30.415Z,15.59
2022-10-07T06:34:32.103Z,15.64
2022-10-07T06:36:34.166Z,15.57
2022-10-07T06:38:35.791Z,15.62
2022-10-07T06:40:41.791Z,15.57
2022-10-07T06:42:43.496Z,15.59
2022-10-07T06:44:45.150Z,15.65
2022-10-07T06:46:46.756Z,15.70
2022-10-07T06:48:48.566Z,15.61
2022-10-07T06:50:51.963Z,15.64
2022-10-07T06:52:53.825Z,15.69
2022-10-07T06:54:55.836Z,15.75
2022-10-07T06:56:57.634Z,15.63
2022-10-07T06:58:59.542Z,15.69
2022-10-07T07:01:01.551Z,15.66
2022-10-07T07:03:04.790Z,15.77
2022-10-07T07:05:08.768Z,15.69
2022-10-07T07:07:10.448Z,15.73
2022-10-07T07:09:12.402Z,15.68
2022-10-07T07:11:33.323Z,15.72
2022-10-07T07:13:36.027Z,15.65
2022-10-07T07:15:38.810Z,15.72
2022-10-07T07:17:40.573Z,15.51
2022-10-07T07:19:42.597Z,15.53
2022-10-07T07:21:46.570Z,15.53
2022-10-07T07:23:53.883Z,15.55
2022-10-07T07:25:55.601Z,15.65
2022-10-07T07:28:00.881Z,15.73
2022-10-07T07:30:04.260Z,15.80
2022-10-07T07:32:06.559Z,15.69
2022-10-07T07:34:14.209Z,15.73
2022-10-07T07:36:16.556Z,15.83
2022-10-07T07:38:22.182Z,15.56
2022-10-07T07:40:26.678Z,15.76
2022-10-07T07:42:28.421Z,15.76
2022-10-07T07:44:34.049Z,15.78
2022-10-07T07:46:40.155Z,15.80
2022-10-07T07:48:41.845Z,15.90
2022-10-07T07:50:44.019Z,15.84
2022-10-07T07:52:45.632Z,15.76
2022-10-07T07:54:48.178Z,15.77
2022-10-07T07:56:49.931Z,15.83
2022-10-07T07:58:51.635Z,15.93
2022-10-07T08:01:06.243Z,15.94
2022-10-07T08:03:08.102Z,16.00
2022-10-07T08:05:10.392Z,16.03
2022-10-07T08:07:13.147Z,15.94
2022-10-07T08:09:21.385Z,16.03
2022-10-07T08:11:23.492Z,16.05
2022-10-07T08:13:25.371Z,16.08
2022-10-07T08:15:27.150Z,15.94
2022-10-07T08:17:28.802Z,15.96
2022-10-07T08:19:35.754Z,16.00
2022-10-07T08:21:37.547Z,16.08
2022-10-07T08:23:40.140Z,16.04
2022-10-07T08:25:41.772Z,16.19
2022-10-07T08:27:44.332Z,16.04
2022-10-07T08:29:46.506Z,16.12
2022-10-07T08:31:49.434Z,16.06
2022-10-07T08:33:51.428Z,16.08
2022-10-07T08:35:59.614Z,16.19
2022-10-07T08:38:01.354Z,16.21
2022-10-07T08:40:03.235Z,16.22
2022-10-07T08:42:15.335Z,16.10
2022-10-07T08:44:26.757Z,16.32
2022-10-07T08:46:32.607Z,16.40
2022-10-07T08:48:40.721Z,16.33
2022-10-07T08:50:59.264Z,16.45
2022-10-07T08:53:04.254Z,16.24
2022-10-07T08:55:18.797Z,16.44
2022-10-07T08:57:38.517Z,16.58
2022-10-07T08:59:46.907Z,16.59
2022-10-07T09:02:15.694Z,16.55
2022-10-07T09:04:36.136Z,16.73
2022-10-07T09:06:43.155Z,16.76
2022-10-07T09:08:52.348Z,16.71
2022-10-07T09:10:56.765Z,16.69
2022-10-07T09:13:10.745Z,16.74
2022-10-07T09:15:40.252Z,16.80
2022-10-07T09:17:52.972Z,16.80
2022-10-07T09:19:59.927Z,16.74
2022-10-07T09:22:11.611Z,16.61
2022-10-07T09:24:19.582Z,16.64
2022-10-07T09:26:21.422Z,16.72
2022-10-07T09:28:31.707Z,16.77
2022-10-07T09:30:33.638Z,16.64
2022-10-07T09:32:40.644Z,16.81
2022-10-07T09:34:42.320Z,16.80
2022-10-07T09:37:10.987Z,16.84
2022-10-07T09:39:27.171Z,16.94
2022-10-07T09:41:38.574Z,16.97
2022-10-07T09:43:52.530Z,16.92
2022-10-07T09:45:56.329Z,16.87
2022-10-07T09:48:08.459Z,16.94
2022-10-07T09:50:38.613Z,17.12
2022-10-07T09:52:55.722Z,17.16
2022-10-07T09:55:31.893Z,17.29
2022-10-07T09:57:36.052Z,17.36
2022-10-07T09:59:40.969Z,17.46
2022-10-07T10:01:49.764Z,17.59
2022-10-07T10:03:58.423Z,17.59
2022-10-07T10:06:09.894Z,17.69
2022-10-07T10:08:14.624Z,17.58
2022-10-07T10:10:25.866Z,17.66
2022-10-07T10:12:27.794Z,17.87
2022-10-07T10:15:09.191Z,17.78
2022-10-07T10:17:32.075Z,17.89
2022-10-07T10:19:48.705Z,17.80
2022-10-07T10:21:56.253Z,17.91
2022-10-07T10:24:06.911Z,18.02
2022-10-07T10:26:34.311Z,17.99
2022-10-07T10:28:52.870Z,17.98
2022-10-07T10:31:07.288Z,17.90
2022-10-07T10:33:33.337Z,17.99
2022-10-07T10:35:46.686Z,17.97
2022-10-07T10:38:08.703Z,17.97
2022-10-07T10:40:40.222Z,17.97
2022-10-07T10:43:10.274Z,17.93
2022-10-07T10:45:32.168Z,17.84
2022-10-07T10:47:53.116Z,17.96
2022-10-07T10:50:04.318Z,17.78
2022-10-07T10:52:37.160Z,17.90
2022-10-07T10:54:50.703Z,17.92
2022-10-07T10:56:58.483Z,17.89
2022-10-07T10:59:39.647Z,17.99
2022-10-07T11:01:44.416Z,18.00
2022-10-07T11:04:05.583Z,18.16
2022-10-07T11:06:11.447Z,18.25
2022-10-07T11:08:37.775Z,18.51
2022-10-07T11:10:53.546Z,18.73
2022-10-07T11:13:06.287Z,18.85
2022-10-07T11:15:21.559Z,18.83
2022-10-07T11:17:30.515Z,18.81
2022-10-07T11:20:06.223Z,18.87
2022-10-07T11:22:19.092Z,18.94
2022-10-07T11:24:27.999Z,19.07
2022-10-07T11:26:37.809Z,19.26
2022-10-07T11:28:43.902Z,19.32
2022-10-07T11:31:11.242Z,19.30
2022-10-07T11:33:24.356Z,19.22
2022-10-07T11:35:37.190Z,19.22
2022-10-07T11:37:50.730Z,19.39
2022-10-07T11:39:53.777Z,19.37
2022-10-07T11:42:17.023Z,19.36
2022-10-07T11:44:32.014Z,19.37
2022-10-07T11:46:40.608Z,19.35
2022-10-07T11:49:11.445Z,19.40
2022-10-07T11:51:22.776Z,19.47
2022-10-07T11:53:28.481Z,19.25
2022-10-07T11:55:45.316Z,19.21
2022-10-07T11:57:54.877Z,19.21
2022-10-07T12:00:08.323Z,19.27
2022-10-07T12:02:28.532Z,19.36
2022-10-07T12:04:30.181Z,19.34
2022-10-07T12:06:31.869Z,19.59
2022-10-07T12:08:36.758Z,19.76
2022-10-07T12:10:38.797Z,19.76
2022-10-07T12:12:44.618Z,19.94
2022-10-07T12:15:02.279Z,20.05
2022-10-07T12:17:25.244Z,19.80
2022-10-07T12:19:40.086Z,19.88
2022-10-07T12:21:59.762Z,20.17
2022-10-07T12:24:14.485Z,20.31
2022-10-07T12:26:31.173Z,20.51
2022-10-07T12:28:35.283Z,20.44
2022-10-07T12:31:00.635Z,20.46
2022-10-07T12:33:15.318Z,20.71
2022-10-07T12:35:52.900Z,20.84
2022-10-07T12:38:10.938Z,20.78
2022-10-07T12:40:27.633Z,20.62
2022-10-07T12:42:29.855Z,20.66
2022-10-07T12:44:36.324Z,20.91
2022-10-07T12:46:37.981Z,20.89
2022-10-07T12:49:05.080Z,20.98
2022-10-07T12:51:18.484Z,20.72
2022-10-07T12:53:24.856Z,20.81
2022-10-07T12:55:37.381Z,20.75
2022-10-07T12:57:42.828Z,20.65
2022-10-07T13:00:08.430Z,20.60
2022-10-07T13:02:31.634Z,20.60
2022-10-07T13:04:58.965Z,20.64
2022-10-07T13:07:25.321Z,20.71
2022-10-07T13:09:46.814Z,20.66
2022-10-07T13:12:06.961Z,20.63
2022-10-07T13:14:33.491Z,20.92
2022-10-07T13:16:38.297Z,20.96
2022-10-07T13:18:46.327Z,20.87
2022-10-07T13:21:03.355Z,20.82
2022-10-07T13:23:13.168Z,20.73
2022-10-07T13:25:19.734Z,20.78
2022-10-07T13:27:28.128Z,20.63
2022-10-07T13:29:37.884Z,20.66
2022-10-07T13:31:39.649Z,20.69
2022-10-07T13:33:43.258Z,20.92
2022-10-07T13:35:44.941Z,20.87
2022-10-07T13:37:47.374Z,21.08
2022-10-07T13:39:49.136Z,21.03
2022-10-07T13:41:55.470Z,20.90
2022-10-07T13:44:00.672Z,21.19
2022-10-07T13:46:05.328Z,21.26
2022-10-07T13:48:07.168Z,21.31
2022-10-07T13:50:19.703Z,21.37
2022-10-07T13:52:35.427Z,21.37
2022-10-07T13:54:37.626Z,21.41
2022-10-07T13:56:42.630Z,21.49
2022-10-07T13:58:45.054Z,21.36
2022-10-07T14:00:49.041Z,21.41
2022-10-07T14:02:51.888Z,21.54
2022-10-07T14:05:18.733Z,21.57
2022-10-07T14:07:22.341Z,21.54
2022-10-07T14:09:38.319Z,21.57
2022-10-07T14:11:40.035Z,21.44
2022-10-07T14:13:43.359Z,21.35
2022-10-07T14:15:51.115Z,21.43
2022-10-07T14:17:56.313Z,21.30
2022-10-07T14:20:05.654Z,21.41
2022-10-07T14:22:19.213Z,21.16
2022-10-07T14:24:21.059Z,21.19
2022-10-07T14:26:22.719Z,21.22
2022-10-07T14:28:24.461Z,21.14
2022-10-07T14:30:58.248Z,21.01
2022-10-07T14:33:31.118Z,21.11
2022-10-07T14:35:34.052Z,20.95
2022-10-07T14:37:35.680Z,20.75
2022-10-07T14:39:48.199Z,20.77
2022-10-07T14:41:50.176Z,20.73
2022-10-07T14:43:52.085Z,20.52
2022-10-07T14:45:53.807Z,20.51
2022-10-07T14:47:55.486Z,20.51
2022-10-07T14:50:01.854Z,20.38
2022-10-07T14:52:06.301Z,20.28
2022-10-07T14:54:08.254Z,20.19
2022-10-07T14:56:15.234Z,20.12
2022-10-07T14:58:16.897Z,20.08
2022-10-07T15:00:21.733Z,19.94
2022-10-07T15:02:23.481Z,19.64
2022-10-07T15:04:25.331Z,19.52
2022-10-07T15:06:28.441Z,19.81
2022-10-07T15:08:31.428Z,19.75
2022-10-07T15:10:33.404Z,19.82
2022-10-07T15:12:35.247Z,19.71
2022-10-07T15:14:37.209Z,19.84
2022-10-07T15:16:39.194Z,20.01
2022-10-07T15:18:45.144Z,19.95
2022-10-07T15:20:55.870Z,19.93
2022-10-07T15:22:57.632Z,20.12
2022-10-07T15:24:59.458Z,20.24
2022-10-07T15:27:01.583Z,20.32
2022-10-07T15:29:03.329Z,20.30
2022-10-07T15:31:09.494Z,20.08
2022-10-07T15:33:12.584Z,19.85
2022-10-07T15:35:14.320Z,19.75
2022-10-07T15:37:17.189Z,19.75
2022-10-07T15:39:21.512Z,19.45
2022-10-07T15:41:43.262Z,19.47
2022-10-07T15:43:44.874Z,19.54
2022-10-07T15:45:46.630Z,19.48
2022-10-07T15:47:50.528Z,19.70
2022-10-07T15:49:52.189Z,19.69
2022-10-07T15:51:55.503Z,19.49
2022-10-07T15:53:57.570Z,19.51
2022-10-07T15:55:59.231Z,19.54
2022-10-07T15:58:00.964Z,19.53
2022-10-07T16:00:04.988Z,19.37
2022-10-07T16:02:09.349Z,19.37
2022-10-07T16:04:15.322Z,19.57
2022-10-07T16:06:21.325Z,19.48
2022-10-07T16:08:23.041Z,19.51
2022-10-07T16:10:24.773Z,19.40
2022-10-07T16:12:26.404Z,19.38
2022-10-07T16:14:28.132Z,19.36
2022-10-07T16:16:31.505Z,19.39
2022-10-07T16:18:39.353Z,19.31
2022-10-07T16:20:40.995Z,19.24
2022-10-07T16:22:42.627Z,19.17
2022-10-07T16:24:44.456Z,19.15
2022-10-07T16:26:47.963Z,19.16
2022-10-07T16:29:09.932Z,19.27
2022-10-07T16:31:11.683Z,19.08
2022-10-07T16:33:13.550Z,18.93
2022-10-07T16:35:15.363Z,19.01
2022-10-07T16:37:17.035Z,18.90
2022-10-07T16:39:20.917Z,18.84
2022-10-07T16:41:22.558Z,18.97
2022-10-07T16:43:24.270Z,18.80
2022-10-07T16:45:25.963Z,18.74
2022-10-07T16:47:27.951Z,18.72
2022-10-07T16:49:30.436Z,18.73
2022-10-07T16:51:35.483Z,18.68
2022-10-07T16:53:37.310Z,18.67
2022-10-07T16:55:39.241Z,18.56
2022-10-07T16:57:40.980Z,18.50
2022-10-07T16:59:42.685Z,18.60
2022-10-07T17:01:44.403Z,18.38
2022-10-07T17:03:52.157Z,18.55
2022-10-07T17:05:58.002Z,18.46
2022-10-07T17:07:59.611Z,18.45
2022-10-07T17:10:01.265Z,18.52
2022-10-07T17:12:04.620Z,18.51
2022-10-07T17:14:11.119Z,18.45
2022-10-07T17:16:13.675Z,18.63
2022-10-07T17:18:16.179Z,18.59
2022-10-07T17:20:17.989Z,18.58
2022-10-07T17:22:19.735Z,18.58
2022-10-07T17:24:22.805Z,18.57
2022-10-07T17:26:26.996Z,18.42
2022-10-07T17:28:28.923Z,18.47
2022-10-07T17:30:33.375Z,18.53
2022-10-07T17:32:34.990Z,18.50
2022-10-07T17:34:36.751Z,18.54
2022-10-07T17:36:39.788Z,18.56
2022-10-07T17:38:44.002Z,18.56
2022-10-07T17:40:45.889Z,18.52
2022-10-07T17:42:47.596Z,18.44
2022-10-07T17:44:49.947Z,18.37
2022-10-07T17:46:51.891Z,18.16
2022-10-07T17:48:56.319Z,18.04
2022-10-07T17:51:05.371Z,17.82
2022-10-07T17:53:07.345Z,17.62
2022-10-07T17:55:09.615Z,17.54
2022-10-07T17:57:11.361Z,17.34
2022-10-07T17:59:14.463Z,17.30
2022-10-07T18:01:27.253Z,17.28
2022-10-07T18:03:28.879Z,17.16
2022-10-07T18:05:30.530Z,17.19
2022-10-07T18:07:32.231Z,17.06
2022-10-07T18:09:34.007Z,17.05
2022-10-07T18:11:54.795Z,16.85
2022-10-07T18:14:15.022Z,16.84
2022-10-07T18:16:17.357Z,16.81
2022-10-07T18:18:19.093Z,16.81
2022-10-07T18:20:22.827Z,16.74
2022-10-07T18:22:24.483Z,16.58
2022-10-07T18:24:28.951Z,16.56
2022-10-07T18:26:30.855Z,16.59
2022-10-07T18:28:36.222Z,16.56
2022-10-07T18:30:37.869Z,16.44
2022-10-07T18:32:39.598Z,16.48
2022-10-07T18:34:41.267Z,16.51
2022-10-07T18:36:42.885Z,16.60
2022-10-07T18:38:45.483Z,16.56
2022-10-07T18:40:47.151Z,16.52
2022-10-07T18:42:48.893Z,16.62
2022-10-07T18:44:52.347Z,16.56
2022-10-07T18:46:54.094Z,16.51
2022-10-07T18:48:55.722Z,16.42
2022-10-07T18:50:57.578Z,16.42
2022-10-07T18:53:00.811Z,16.47
2022-10-07T18:55:02.480Z,16.52
2022-10-07T18:57:04.361Z,16.39
2022-10-07T18:59:06.032Z,16.39
2022-10-07T19:01:08.592Z,16.20
2022-10-07T19:03:10.434Z,16.33
2022-10-07T19:05:12.077Z,16.35
2022-10-07T19:07:13.907Z,16.30
2022-10-07T19:09:35.941Z,16.36
2022-10-07T19:11:37.753Z,16.39
2022-10-07T19:13:48.329Z,16.33
2022-10-07T19:15:50.016Z,16.39
2022-10-07T19:17:51.676Z,16.34
2022-10-07T19:19:53.345Z,16.47
2022-10-07T19:21:55.902Z,16.42
2022-10-07T19:23:58.890Z,16.43
2022-10-07T19:26:01.878Z,16.39
2022-10-07T19:28:03.761Z,16.46
2022-10-07T19:30:06.149Z,16.38
2022-10-07T19:32:08.747Z,16.38
2022-10-07T19:34:13.693Z,16.36
2022-10-07T19:36:15.524Z,16.45
2022-10-07T19:38:17.141Z,16.42
2022-10-07T19:40:18.862Z,16.39
2022-10-07T19:42:20.615Z,16.47
2022-10-07T19:44:22.322Z,16.44
2022-10-07T19:46:25.872Z,16.49
2022-10-07T19:48:27.499Z,16.49
2022-10-07T19:50:29.173Z,16.45
2022-10-07T19:52:30.781Z,16.37
2022-10-07T19:54:35.885Z,16.45
2022-10-07T19:56:38.691Z,16.40
2022-10-07T19:58:48.159Z,16.25
2022-10-07T20:00:50.398Z,16.28
2022-10-07T20:02:56.631Z,16.34
2022-10-07T20:04:58.369Z,16.29
2022-10-07T20:07:00.331Z,16.20
2022-10-07T20:09:02.433Z,16.20
2022-10-07T20:11:05.725Z,16.28
2022-10-07T20:13:07.379Z,16.29
2022-10-07T20:15:09.513Z,16.25
2022-10-07T20:17:11.436Z,16.18
2022-10-07T20:19:15.826Z,16.29
2022-10-07T20:21:24.537Z,16.24
2022-10-07T20:23:26.553Z,16.22
2022-10-07T20:25:28.411Z,16.26
2022-10-07T20:27:30.153Z,16.24
2022-10-07T20:29:32.926Z,16.19
2022-10-07T20:31:38.775Z,16.20
2022-10-07T20:33:43.314Z,16.13
2022-10-07T20:35:45.460Z,16.09
2022-10-07T20:37:47.575Z,16.10
2022-10-07T20:40:07.832Z,16.19
2022-10-07T20:42:24.418Z,16.17
2022-10-07T20:44:26.155Z,16.12
2022-10-07T20:46:27.855Z,16.05
2022-10-07T20:48:31.618Z,15.95
2022-10-07T20:50:33.789Z,16.00
2022-10-07T20:52:36.412Z,15.92
2022-10-07T20:54:38.261Z,15.83
2022-10-07T20:56:39.890Z,15.84
2022-10-07T20:58:41.570Z,15.79
2022-10-07T21:00:44.132Z,15.86
2022-10-07T21:02:46.121Z,15.88
2022-10-07T21:04:48.349Z,15.82
2022-10-07T21:06:51.405Z,15.91
2022-10-07T21:08:54.287Z,15.88
2022-10-07T21:11:06.109Z,15.85
2022-10-07T21:13:07.876Z,15.85
2022-10-07T21:15:09.956Z,15.79
2022-10-07T21:17:12.413Z,15.82
2022-10-07T21:19:15.552Z,15.87
2022-10-07T21:21:17.995Z,15.80
2022-10-07T21:23:22.243Z,15.82
2022-10-07T21:25:24.002Z,15.83
2022-10-07T21:27:25.966Z,15.91
2022-10-07T21:29:27.878Z,15.84
2022-10-07T21:31:31.368Z,15.84
2022-10-07T21:33:33.070Z,15.79
2022-10-07T21:35:34.708Z,15.61
2022-10-07T21:37:36.665Z,15.65
2022-10-07T21:39:38.414Z,15.75
2022-10-07T21:41:41.155Z,15.69
2022-10-07T21:43:44.099Z,15.77
2022-10-07T21:45:45.804Z,15.76
2022-10-07T21:47:47.590Z,15.80
2022-10-07T21:49:49.253Z,15.73
2022-10-07T21:51:50.939Z,15.73
2022-10-07T21:53:59.682Z,15.78
2022-10-07T21:56:05.902Z,15.77
2022-10-07T21:58:07.532Z,15.79
2022-10-07T22:00:12.344Z,15.77
2022-10-07T22:02:14.011Z,15.77
2022-10-07T22:04:17.933Z,15.79
2022-10-07T22:06:19.888Z,15.68
2022-10-07T22:08:36.782Z,15.73
2022-10-07T22:10:38.410Z,15.74
2022-10-07T22:12:41.056Z,15.64
2022-10-07T22:14:42.747Z,15.67
2022-10-07T22:16:48.745Z,15.69
2022-10-07T22:18:52.593Z,15.69
2022-10-07T22:20:54.224Z,15.62
2022-10-07T22:22:59.828Z,15.66
2022-10-07T22:25:01.727Z,15.65
2022-10-07T22:27:04.586Z,15.56
2022-10-07T22:29:09.421Z,15.56
2022-10-07T22:31:11.303Z,15.56
2022-10-07T22:33:15.271Z,15.50
2022-10-07T22:35:33.852Z,15.43
2022-10-07T22:37:35.624Z,15.53
2022-10-07T22:39:37.294Z,15.50
2022-10-07T22:41:40.419Z,15.40
2022-10-07T22:43:46.816Z,15.42
2022-10-07T22:45:57.148Z,15.45
2022-10-07T22:47:58.894Z,15.41
2022-10-07T22:50:02.740Z,15.44
2022-10-07T22:52:04.341Z,15.44
2022-10-07T22:54:07.300Z,15.38
2022-10-07T22:56:13.959Z,15.43
2022-10-07T22:58:15.696Z,15.35
2022-10-07T23:00:17.665Z,15.34
2022-10-07T23:02:19.475Z,15.36
2022-10-07T23:04:21.638Z,15.31
2022-10-07T23:06:23.716Z,15.36
2022-10-07T23:08:25.460Z,15.32
2022-10-07T23:10:27.118Z,15.30
2022-10-07T23:12:28.782Z,15.34
2022-10-07T23:14:30.421Z,15.30
2022-10-07T23:16:34.279Z,15.36
2022-10-07T23:18:35.959Z,15.31
2022-10-07T23:20:37.570Z,15.24
2022-10-07T23:22:40.675Z,15.27
2022-10-07T23:24:42.376Z,15.27
2022-10-07T23:26:46.188Z,15.17
2022-10-07T23:28:49.988Z,15.17
2022-10-07T23:30:53.169Z,15.19
2022-10-07T23:32:56.272Z,15.20
2022-10-07T23:34:57.926Z,15.19
2022-10-07T23:36:59.727Z,15.16
2022-10-07T23:39:01.872Z,15.15
2022-10-07T23:41:03.515Z,15.14
2022-10-07T23:43:05.115Z,15.14
2022-10-07T23:45:07.119Z,15.06
2022-10-07T23:47:08.724Z,15.16
2022-10-07T23:49:13.129Z,15.04
2022-10-07T23:51:18.456Z,14.92
2022-10-07T23:53:21.826Z,14.93
2022-10-07T23:55:23.512Z,14.92
2022-10-07T23:57:25.181Z,14.87
2022-10-07T23:59:30.688Z,14.83
